Time;durP1;ratioP1;P1;durP2;ratioP2;P2;SDS_P1;SDS_P2;PMS_P1;PMS_P2;Temp;Humidity;BMP_temperature;BMP_pressure;BME280_temperature;BME280_humidity;BME280_pressure;Samples;Min_cycle;Max_cycle;Signal;HPM_P1;HPM_P2
2022/12/30 06:45:18;;;;;;;4.67;3.33;;;;;;;4.44;94.08;100001.16;5126923;27;20948;-58
2022/12/30 06:47:45;;;;;;;7.03;2.43;;;;;;;4.31;94.60;100001.53;5127612;27;20201;-58
2022/12/30 06:50:12;;;;;;;1.23;1.00;;;;;;;4.35;94.78;99991.31;5127576;27;20197;-58
2022/12/30 06:52:39;;;;;;;1.67;1.57;;;;;;;4.25;94.89;100001.75;5127746;27;20663;-58
2022/12/30 06:55:06;;;;;;;4.93;1.63;;;;;;;4.09;95.94;99987.91;5127249;27;20673;-58
2022/12/30 06:57:34;;;;;;;1.63;1.43;;;;;;;4.07;96.69;99997.22;5127659;27;20205;-58
2022/12/30 07:00:01;;;;;;;2.50;1.60;;;;;;;4.16;97.39;99996.97;5127444;27;20220;-58
2022/12/30 07:02:29;;;;;;;0.73;0.73;;;;;;;4.28;97.08;100006.69;5126950;27;20196;-60
2022/12/30 07:04:56;;;;;;;1.73;1.60;;;;;;;4.38;97.05;100009.75;5126653;27;20212;-59
2022/12/30 07:07:23;;;;;;;4.10;1.37;;;;;;;4.61;96.67;100003.94;5126995;27;20200;-59
2022/12/30 07:09:50;;;;;;;1.50;1.40;;;;;;;4.65;95.58;100000.44;5127010;27;20217;-59
2022/12/30 07:12:17;;;;;;;4.50;2.03;;;;;;;4.80;95.19;100004.19;5127597;27;20588;-59
2022/12/30 07:14:44;;;;;;;1.57;1.47;;;;;;;4.98;94.77;100003.53;5126581;27;20293;-59
2022/12/30 07:17:11;;;;;;;1.50;1.40;;;;;;;5.24;94.13;100001.81;5127074;27;20207;-59
2022/12/30 07:19:39;;;;;;;2.07;1.40;;;;;;;5.33;92.42;100004.00;5127057;27;20245;-59
2022/12/30 07:22:06;;;;;;;2.70;1.47;;;;;;;5.51;91.92;100007.59;5127204;27;20204;-58
2022/12/30 07:24:33;;;;;;;1.43;1.33;;;;;;;5.76;91.47;100001.59;5127111;27;20213;-57
2022/12/30 07:27:00;;;;;;;1.87;0.97;;;;;;;5.92;90.75;100005.22;5127163;27;20201;-58
2022/12/30 07:29:27;;;;;;;1.33;1.23;;;;;;;6.06;89.73;100005.53;5127085;27;20240;-58
2022/12/30 07:31:54;;;;;;;1.57;1.47;;;;;;;6.19;89.30;100010.13;5126869;27;20205;-58
2022/12/30 07:34:20;;;;;;;2.43;2.00;;;;;;;6.40;89.17;100009.28;5126752;27;20236;-58
2022/12/30 07:36:49;;;;;;;2.80;1.93;;;;;;;6.60;88.56;100005.91;5126667;27;20656;-58
2022/12/30 07:39:16;;;;;;;2.63;1.33;;;;;;;6.74;87.95;100003.63;5127080;27;20217;-57
2022/12/30 07:41:42;;;;;;;1.20;1.10;;;;;;;6.88;87.97;100005.59;5126762;27;20196;-58
2022/12/30 07:44:09;;;;;;;2.00;1.70;;;;;;;7.04;87.51;100010.88;5124458;27;20224;-60
2022/12/30 07:46:36;;;;;;;2.77;1.93;;;;;;;7.24;86.99;99999.81;5112582;28;20588;-60
2022/12/30 07:49:03;;;;;;;2.90;1.87;;;;;;;7.39;86.43;100003.44;5112562;28;20225;-58
2022/12/30 07:51:30;;;;;;;2.00;1.70;;;;;;;7.53;85.60;100002.78;5112558;28;20197;-58
2022/12/30 07:53:59;;;;;;;2.07;1.40;;;;;;;7.67;85.38;100010.63;5112962;28;20225;-58
2022/12/30 07:56:26;;;;;;;2.43;1.97;;;;;;;7.84;85.39;100013.22;5112591;28;20197;-60
2022/12/30 07:58:54;;;;;;;2.30;1.60;;;;;;;7.98;84.81;100014.34;5112935;28;20220;-58
2022/12/30 08:01:22;;;;;;;2.97;2.33;;;;;;;8.11;84.40;100010.28;5112596;28;20197;-60
2022/12/30 08:03:49;;;;;;;2.43;1.80;;;;;;;8.33;83.45;100010.94;5112698;28;20220;-60
2022/12/30 08:06:17;;;;;;;3.57;1.27;;;;;;;8.54;82.71;100015.91;5112494;28;20199;-58
2022/12/30 08:08:45;;;;;;;6.30;2.27;;;;;;;8.76;82.14;100013.97;5112377;28;20270;-58
2022/12/30 08:11:15;;;;;;;3.10;2.03;;;;;;;8.81;81.28;100012.00;5112587;28;20194;-58
2022/12/30 08:13:44;;;;;;;3.10;2.47;;;;;;;9.16;80.33;100016.22;5112656;28;20681;-58
2022/12/30 08:16:13;;;;;;;3.73;1.50;;;;;;;9.34;79.11;100020.38;5112337;28;20217;-58
2022/12/30 08:18:40;;;;;;;3.23;2.30;;;;;;;9.43;77.63;100019.06;5112542;28;20217;-60
2022/12/30 08:21:10;;;;;;;2.53;1.80;;;;;;;9.62;77.22;100029.94;5112319;28;20205;-60
2022/12/30 08:23:36;;;;;;;2.43;2.00;;;;;;;9.92;76.12;100034.34;5112055;28;20712;-58
2022/12/30 08:26:05;;;;;;;2.33;1.80;;;;;;;10.09;75.74;100029.09;5112006;28;20201;-58
2022/12/30 08:28:34;;;;;;;3.17;2.07;;;;;;;10.30;73.76;100032.25;5111938;28;20611;-60
2022/12/30 08:31:05;;;;;;;2.47;2.00;;;;;;;10.58;73.44;100038.34;5112050;28;20208;-61
2022/12/30 08:33:32;;;;;;;3.30;2.73;;;;;;;10.81;71.87;100032.72;5112239;28;20236;-59
2022/12/30 08:36:01;;;;;;;5.63;2.60;;;;;;;11.02;71.03;100034.94;5111770;28;20193;-58
2022/12/30 08:38:28;;;;;;;2.80;2.20;;;;;;;11.18;70.57;100034.88;5111757;28;20225;-58
2022/12/30 08:40:55;;;;;;;3.83;1.80;;;;;;;11.24;68.67;100035.31;5111940;28;20224;-58
2022/12/30 08:43:22;;;;;;;2.63;1.87;;;;;;;11.45;68.67;100025.53;5111813;28;20233;-58
2022/12/30 08:45:58;;;;;;;4.77;2.60;;;;;;;11.64;68.49;100029.53;5112148;28;20189;-60
2022/12/30 08:48:24;;;;;;;3.47;2.30;;;;;;;11.61;67.27;100029.72;5111715;28;20699;-61
2022/12/30 08:50:53;;;;;;;5.23;2.60;;;;;;;11.96;66.82;100023.25;5111625;28;20197;-58
2022/12/30 08:53:20;;;;;;;4.77;1.97;;;;;;;12.34;66.34;100022.56;5111711;28;20240;-58
2022/12/30 08:55:47;;;;;;;3.33;2.30;;;;;;;12.57;65.88;100022.81;5111246;28;20194;-58
2022/12/30 08:58:14;;;;;;;5.90;2.73;;;;;;;12.25;65.74;100025.72;5111014;28;20217;-58
2022/12/30 09:00:41;;;;;;;4.00;2.63;;;;;;;12.42;65.36;100020.31;5111476;28;20681;-60
2022/12/30 09:03:09;;;;;;;3.60;2.43;;;;;;;12.31;64.45;100016.81;5111377;28;20217;-61
2022/12/30 09:05:36;;;;;;;4.70;2.60;;;;;;;12.54;66.21;100015.31;5111431;28;20291;-60
2022/12/30 09:08:03;;;;;;;4.73;2.80;;;;;;;12.60;64.07;100015.72;5111115;28;20206;-58
2022/12/30 09:10:29;;;;;;;4.43;2.67;;;;;;;12.72;65.52;100015.84;5110901;28;20203;-58
2022/12/30 09:12:56;;;;;;;2.70;2.20;;;;;;;12.82;65.29;100012.56;5111279;28;20197;-61
2022/12/30 09:15:23;;;;;;;4.03;2.27;;;;;;;13.18;64.29;100023.84;5110840;28;20226;-61
2022/12/30 09:17:51;;;;;;;4.13;2.53;;;;;;;13.50;64.48;100013.16;5111175;28;20198;-61
2022/12/30 09:20:19;;;;;;;5.60;2.67;;;;;;;13.85;62.19;100012.41;5110871;28;20226;-58
2022/12/30 09:22:46;;;;;;;3.20;2.30;;;;;;;14.01;61.41;100012.94;5111249;28;20193;-59
2022/12/30 09:25:12;;;;;;;5.97;2.87;;;;;;;13.55;59.48;100006.72;5111153;28;20195;-61
2022/12/30 09:27:40;;;;;;;3.60;2.50;;;;;;;13.91;61.47;100004.28;5111038;28;20194;-61
2022/12/30 09:30:08;;;;;;;5.00;3.13;;;;;;;14.25;58.68;100006.06;5110555;28;20710;-61
2022/12/30 09:32:35;;;;;;;3.63;2.23;;;;;;;14.20;58.68;99997.84;5110887;28;20215;-59
2022/12/30 09:35:01;;;;;;;5.90;3.23;;;;;;;14.18;58.33;100002.25;5110697;28;20239;-59
2022/12/30 09:37:30;;;;;;;3.50;2.27;;;;;;;14.13;57.63;99999.19;5110693;28;20667;-59
2022/12/30 09:39:56;;;;;;;4.80;2.53;;;;;;;14.50;57.31;100004.25;5110570;28;20212;-59
2022/12/30 09:45:27;;;;;;;3.83;2.80;;;;;;;15.07;55.70;99997.44;5110594;28;20704;-59
2022/12/30 09:47:58;;;;;;;4.43;2.63;;;;;;;15.60;55.40;99990.69;5110351;28;20239;-59
2022/12/30 09:50:37;;;;;;;5.43;3.13;;;;;;;15.93;53.50;99988.16;5110624;28;20194;-61
2022/12/30 09:53:13;;;;;;;4.40;3.23;;;;;;;15.94;52.88;99987.22;5110472;28;20225;-62
2022/12/30 09:55:48;;;;;;;4.20;2.90;;;;;;;16.07;53.38;99986.13;5110291;28;20236;-59
2022/12/30 09:58:24;;;;;;;5.87;3.43;;;;;;;16.69;53.10;99984.47;5110592;28;20217;-59
2022/12/30 10:00:51;;;;;;;6.33;3.10;;;;;;;16.85;52.78;99986.63;5110265;28;20199;-61
2022/12/30 10:03:20;;;;;;;4.10;2.80;;;;;;;17.05;50.91;99986.72;5110481;28;20274;-60
2022/12/30 10:05:59;;;;;;;5.63;3.23;;;;;;;17.09;51.28;99983.72;5110116;28;20193;-61
2022/12/30 10:08:39;;;;;;;5.07;2.83;;;;;;;17.25;50.31;99980.69;5109851;28;20228;-61
2022/12/30 10:11:26;;;;;;;5.17;2.90;;;;;;;17.19;50.93;99976.00;5110164;28;20214;-60
2022/12/30 10:14:06;;;;;;;6.30;3.47;;;;;;;17.30;50.87;99983.66;5110143;28;20231;-62
2022/12/30 10:16:47;;;;;;;4.57;2.97;;;;;;;17.27;50.24;99983.91;5110337;28;20200;-62
2022/12/30 10:19:22;;;;;;;9.13;4.30;;;;;;;17.04;51.78;99974.75;5110177;28;20224;-63
2022/12/30 10:21:57;;;;;;;7.23;3.37;;;;;;;17.27;51.91;99972.78;5110047;28;20197;-62
2022/12/30 10:24:53;;;;;;;5.47;2.83;;;;;;;17.65;49.45;99977.19;5109918;28;20243;-64
2022/12/30 10:27:22;;;;;;;8.33;3.87;;;;;;;17.53;50.69;99975.69;5110135;28;20217;-62
2022/12/30 10:29:49;;;;;;;4.37;2.83;;;;;;;17.90;49.57;99970.72;5109806;28;20225;-64
2022/12/30 10:32:20;;;;;;;5.40;3.50;;;;;;;18.10;48.51;99968.94;5110263;28;20207;-62
2022/12/30 10:34:52;;;;;;;5.03;3.07;;;;;;;18.17;48.30;99971.78;5109807;28;20258;-62
2022/12/30 10:37:30;;;;;;;7.73;3.97;;;;;;;18.33;49.45;99972.06;5109834;28;20429;-62
2022/12/30 10:40:00;;;;;;;6.00;3.77;;;;;;;18.29;48.25;99966.31;5109743;28;20229;-64
2022/12/30 10:42:51;;;;;;;6.50;3.23;;;;;;;18.25;48.37;99962.38;5109695;28;20192;-61
2022/12/30 10:45:33;;;;;;;6.57;3.83;;;;;;;18.10;48.96;99961.19;5110003;28;20197;-62
2022/12/30 10:48:16;;;;;;;6.20;3.40;;;;;;;17.62;49.11;99956.78;5109438;28;20204;-62
2022/12/30 10:50:47;;;;;;;5.20;3.20;;;;;;;17.82;49.92;99952.47;5109912;28;20203;-61
2022/12/30 10:53:17;;;;;;;5.33;3.50;;;;;;;18.17;47.86;99953.69;5110125;28;20312;-61
2022/12/30 10:55:49;;;;;;;5.37;3.47;;;;;;;17.84;48.37;99951.38;5109657;28;20228;-61
2022/12/30 10:58:25;;;;;;;7.07;4.10;;;;;;;17.84;50.35;99951.38;5109735;28;20280;-61
2022/12/30 11:00:54;;;;;;;8.00;4.10;;;;;;;17.63;49.11;99953.25;5109529;28;20201;-61
2022/12/30 11:03:31;;;;;;;6.97;3.43;;;;;;;17.19;49.17;99947.56;5109530;28;20773;-61
2022/12/30 11:06:06;;;;;;;6.73;3.77;;;;;;;17.23;50.10;99941.22;5109552;28;20208;-61
2022/12/30 11:08:33;;;;;;;6.40;3.70;;;;;;;17.52;49.85;99945.63;5109801;28;20226;-63
2022/12/30 11:11:03;;;;;;;5.53;3.33;;;;;;;17.81;48.22;99943.09;5109304;28;20217;-61
2022/12/30 11:16:16;;;;;;;6.80;3.60;;;;;;;17.19;49.40;99937.25;5109889;28;20580;-61
2022/12/30 11:18:45;;;;;;;11.97;3.93;;;;;;;17.61;49.46;99940.44;5109898;28;20743;-63
2022/12/30 11:21:12;;;;;;;7.77;4.13;;;;;;;17.87;48.78;99934.78;5112622;28;20203;-61
2022/12/30 11:23:41;;;;;;;5.37;3.73;;;;;;;18.12;48.20;99938.53;5113490;28;20213;-61
2022/12/30 11:26:17;;;;;;;6.83;3.43;;;;;;;17.53;48.23;99931.72;5113242;28;20214;-61
2022/12/30 11:28:49;;;;;;;6.87;4.20;;;;;;;17.59;48.58;99931.19;5113261;28;20237;-63
2022/12/30 11:31:18;;;;;;;7.83;4.00;;;;;;;17.79;47.69;99919.94;5113205;28;20202;-63
2022/12/30 11:33:49;;;;;;;5.60;3.67;;;;;;;17.77;48.33;99929.59;5113343;28;20235;-63
2022/12/30 11:36:19;;;;;;;6.00;3.77;;;;;;;17.95;48.18;99915.97;5113347;28;20201;-63
2022/12/30 11:38:48;;;;;;;6.13;4.30;;;;;;;18.00;47.20;99916.38;5113075;28;20224;-63
2022/12/30 11:41:27;;;;;;;7.30;3.77;;;;;;;17.98;47.61;99915.72;5112940;28;20214;-63
2022/12/30 11:44:23;;;;;;;6.33;4.07;;;;;;;17.74;48.25;99909.13;5112792;28;20231;-63
2022/12/30 11:46:53;;;;;;;7.97;4.13;;;;;;;18.07;48.32;99914.88;5076832;28;20200;-61
2022/12/30 11:49:29;;;;;;;5.87;3.63;;;;;;;17.54;48.95;99912.66;5112761;28;20227;-60
2022/12/30 11:51:58;;;;;;;5.90;3.50;;;;;;;17.83;48.62;99902.34;5112754;28;20197;-61
2022/12/30 11:54:27;;;;;;;7.57;3.53;;;;;;;17.61;48.68;99906.03;5112979;28;20246;-61
2022/12/30 11:56:58;;;;;;;4.93;3.40;;;;;;;17.75;48.15;99904.81;5112674;28;20204;-61
2022/12/30 11:59:29;;;;;;;6.77;3.47;;;;;;;17.83;48.58;99905.78;5112410;28;20217;-61
2022/12/30 12:01:59;;;;;;;5.53;3.30;;;;;;;17.69;48.14;99901.00;5112884;28;20207;-61
2022/12/30 12:04:36;;;;;;;7.53;3.43;;;;;;;17.57;47.86;99902.06;5112883;28;20251;-61
2022/12/30 12:07:05;;;;;;;5.23;3.30;;;;;;;17.58;48.08;99898.53;5112675;28;20197;-61
2022/12/30 12:09:38;;;;;;;7.30;3.27;;;;;;;17.60;48.33;99902.63;5112505;28;20213;-61
2022/12/30 12:12:12;;;;;;;4.33;3.10;;;;;;;17.75;48.30;99904.81;5112211;28;20205;-61
2022/12/30 12:14:53;;;;;;;5.60;3.10;;;;;;;17.68;47.10;99899.34;5112311;28;20232;-61
2022/12/30 12:17:34;;;;;;;6.43;3.50;;;;;;;17.60;47.94;99909.56;5112278;28;20210;-61
2022/12/30 12:20:06;;;;;;;5.33;2.97;;;;;;;17.58;47.50;99901.94;5111979;28;20653;-61
2022/12/30 12:22:42;;;;;;;6.37;2.83;;;;;;;17.66;48.07;99906.44;5112203;28;20206;-61
2022/12/30 12:25:18;;;;;;;5.47;3.07;;;;;;;17.84;48.84;99915.16;5112401;28;20189;-61
2022/12/30 12:27:49;;;;;;;5.00;3.57;;;;;;;17.81;48.84;99915.44;5112048;28;20264;-61
2022/12/30 12:30:16;;;;;;;12.40;5.53;;;;;;;17.53;48.81;99905.88;5111779;28;20209;-61
2022/12/30 12:33:08;;;;;;;7.07;3.83;;;;;;;17.34;48.48;99923.00;5112115;28;20208;-63
2022/12/30 12:35:47;;;;;;;6.33;3.10;;;;;;;16.72;49.63;99911.09;5111761;28;20234;-63
2022/12/30 12:38:41;;;;;;;4.77;2.90;;;;;;;16.18;50.04;99910.44;5112113;28;20221;-63
2022/12/30 12:41:37;;;;;;;5.47;3.67;;;;;;;16.33;50.75;99916.09;5111994;28;20233;-63
2022/12/30 12:44:26;;;;;;;4.63;2.70;;;;;;;15.96;51.43;99921.69;5111958;28;20233;-61
2022/12/30 12:47:07;;;;;;;5.83;3.27;;;;;;;15.85;52.92;99916.56;5112101;28;20196;-61
2022/12/30 12:49:52;;;;;;;5.23;3.40;;;;;;;15.73;53.53;99918.38;5111261;28;20217;-61
2022/12/30 12:52:32;;;;;;;5.90;3.57;;;;;;;15.58;53.98;99920.38;5111558;28;20193;-61
2022/12/30 12:55:50;;;;;;;10.37;4.87;;;;;;;15.42;55.36;99925.16;5111652;28;20316;-63
2022/12/30 12:58:23;;;;;;;5.87;4.00;;;;;;;15.50;54.90;99920.19;5111678;28;20228;-63
2022/12/30 13:01:03;;;;;;;10.83;5.03;;;;;;;15.50;54.44;99922.75;5111362;28;20197;-63
2022/12/30 13:03:54;;;;;;;7.20;4.27;;;;;;;15.44;54.57;99927.59;5111593;28;20292;-61
2022/12/30 13:06:28;;;;;;;9.93;5.30;;;;;;;15.48;55.54;99923.84;5111310;28;20212;-60
2022/12/30 13:09:28;;;;;;;15.00;6.97;;;;;;;15.63;56.78;99925.19;5111082;28;20225;-61
2022/12/30 13:12:02;;;;;;;11.30;6.60;;;;;;;15.58;57.52;99925.53;5090603;28;20195;-61
2022/12/30 13:14:37;;;;;;;13.40;7.07;;;;;;;15.49;57.21;99926.28;5111503;28;20212;-63
2022/12/30 13:17:14;;;;;;;27.37;15.10;;;;;;;15.54;57.15;99929.31;5111379;28;20185;-63
2022/12/30 13:19:45;;;;;;;12.47;6.77;;;;;;;15.42;57.36;99935.44;5111464;28;20301;-63
2022/12/30 13:22:15;;;;;;;11.80;6.43;;;;;;;15.39;57.28;99940.84;5111200;27;20827;-63
2022/12/30 13:24:46;;;;;;;7.23;4.27;;;;;;;15.35;55.43;99940.25;5111025;28;20720;-63
2022/12/30 13:27:20;;;;;;;12.33;6.83;;;;;;;15.10;57.44;99943.94;5111084;28;20636;-63
2022/12/30 13:29:48;;;;;;;12.13;5.80;;;;;;;14.60;59.48;99946.06;5111034;28;20224;-63
2022/12/30 13:32:25;;;;;;;10.77;6.63;;;;;;;14.71;60.48;99950.38;5110916;28;20198;-63
2022/12/30 13:34:56;;;;;;;12.50;7.87;;;;;;;14.54;61.21;99938.75;5110755;28;20229;-60
2022/12/30 13:37:29;;;;;;;16.70;8.27;;;;;;;14.26;62.32;99945.13;5110995;28;20216;-60
2022/12/30 13:40:01;;;;;;;14.30;7.83;;;;;;;14.01;63.43;99946.09;5110577;28;20224;-60
2022/12/30 13:42:56;;;;;;;15.53;7.73;;;;;;;13.91;63.10;99945.13;5110017;28;20208;-60
2022/12/30 13:45:26;;;;;;;16.33;6.80;;;;;;;13.79;62.93;99944.28;5110626;28;20193;-62
2022/12/30 13:48:05;;;;;;;12.03;6.13;;;;;;;13.69;63.50;99946.66;5110216;28;20204;-62
2022/12/30 13:50:34;;;;;;;15.70;7.17;;;;;;;13.66;64.04;99943.50;5110506;28;20205;-62
2022/12/30 13:53:03;;;;;;;13.60;6.57;;;;;;;13.52;64.16;99949.59;5110328;28;20199;-62
2022/12/30 13:55:33;;;;;;;14.70;6.87;;;;;;;13.53;64.08;99951.28;5110584;28;20231;-62
2022/12/30 13:58:05;;;;;;;11.40;6.20;;;;;;;13.45;64.63;99953.56;5110353;28;20217;-62
2022/12/30 14:00:34;;;;;;;14.50;5.77;;;;;;;13.42;64.71;99949.44;5110300;28;20192;-62
2022/12/30 14:03:05;;;;;;;13.63;6.60;;;;;;;13.39;64.41;99954.00;5110355;28;20286;-62
2022/12/30 14:06:00;;;;;;;10.30;4.93;;;;;;;13.35;64.64;99949.06;5110597;28;20194;-63
2022/12/30 14:08:49;;;;;;;12.60;5.77;;;;;;;13.33;65.02;99950.91;5110218;28;20223;-62
2022/12/30 14:11:17;;;;;;;12.73;5.07;;;;;;;13.31;64.56;99955.31;5110369;28;20204;-60
2022/12/30 14:13:45;;;;;;;12.33;6.50;;;;;;;13.21;65.05;99956.88;5110505;28;20222;-60
2022/12/30 14:16:44;;;;;;;14.60;6.17;;;;;;;13.13;65.31;99959.16;5110278;27;20230;-60
2022/12/30 14:19:33;;;;;;;11.47;6.23;;;;;;;13.09;65.21;99958.53;5075792;28;20227;-60
2022/12/30 14:22:02;;;;;;;12.80;6.37;;;;;;;12.94;65.97;99961.31;5107421;28;20562;-60
2022/12/30 14:24:49;;;;;;;11.93;6.57;;;;;;;12.84;66.37;99964.50;5109951;28;20215;-60
2022/12/30 14:27:39;;;;;;;14.10;6.73;;;;;;;12.77;65.79;99958.16;5110125;28;20191;-60
2022/12/30 14:30:16;;;;;;;13.87;6.63;;;;;;;12.60;65.90;99955.91;5109856;28;20245;-60
2022/12/30 14:32:44;;;;;;;9.10;5.57;;;;;;;12.53;66.12;99949.53;5109975;28;20190;-62
2022/12/30 14:35:17;;;;;;;12.27;6.73;;;;;;;12.36;65.87;99943.78;5109921;28;20218;-62
2022/12/30 14:37:44;;;;;;;11.87;5.43;;;;;;;12.30;65.16;99951.84;5110342;28;20206;-62
2022/12/30 14:40:30;;;;;;;10.30;5.10;;;;;;;12.17;65.16;99948.47;5109935;28;20199;-62
2022/12/30 14:42:57;;;;;;;14.27;5.77;;;;;;;12.09;63.96;99960.97;5109691;28;20199;-62
2022/12/30 14:45:26;;;;;;;8.87;3.80;;;;;;;12.00;63.47;99952.94;5109895;28;20198;-62
2022/12/30 14:47:53;;;;;;;11.13;4.27;;;;;;;11.92;63.71;99960.28;5109485;28;20205;-62
2022/12/30 14:50:30;;;;;;;7.17;4.87;;;;;;;11.85;63.28;99955.63;5109745;28;20584;-63
2022/12/30 14:53:03;;;;;;;7.60;4.50;;;;;;;11.73;62.46;99959.78;5110079;28;20197;-60
2022/12/30 14:55:34;;;;;;;10.57;5.17;;;;;;;11.62;63.00;99951.97;5111719;28;20614;-60
2022/12/30 14:58:04;;;;;;;5.30;4.03;;;;;;;11.56;62.48;99959.09;5113812;28;20189;-60
2022/12/30 15:00:35;;;;;;;6.00;3.83;;;;;;;11.47;62.89;99957.13;5114193;28;20208;-62
2022/12/30 15:03:02;;;;;;;5.27;2.37;;;;;;;11.40;63.03;99958.41;5113674;28;20197;-63
2022/12/30 15:05:33;;;;;;;4.97;3.03;;;;;;;11.32;62.82;99958.06;5113790;28;20224;-60
2022/12/30 15:08:03;;;;;;;7.00;3.60;;;;;;;11.24;62.90;99960.28;5113649;28;20236;-60
2022/12/30 15:10:35;;;;;;;5.27;3.20;;;;;;;11.13;63.24;99967.78;5114327;28;20200;-60
2022/12/30 15:13:08;;;;;;;5.53;3.27;;;;;;;11.02;63.88;99968.41;5113689;28;20196;-60
2022/12/30 15:15:37;;;;;;;5.83;2.90;;;;;;;10.94;64.00;99970.59;5113666;28;20236;-63
2022/12/30 15:18:35;;;;;;;4.60;2.57;;;;;;;10.84;64.25;99973.72;5113190;28;20713;-63
2022/12/30 15:21:20;;;;;;;4.33;3.37;;;;;;;10.71;65.12;99974.53;5113329;28;20201;-63
2022/12/30 15:23:58;;;;;;;4.83;3.53;;;;;;;10.57;66.20;99981.28;5113824;28;20224;-63
2022/12/30 15:26:26;;;;;;;6.37;3.73;;;;;;;10.47;65.82;99977.63;5113227;28;20194;-63
2022/12/30 15:28:53;;;;;;;8.83;4.37;;;;;;;10.42;66.09;99987.28;5113141;28;20223;-63
2022/12/30 15:31:22;;;;;;;7.30;4.03;;;;;;;10.31;66.21;99987.88;5113073;28;20200;-63
2022/12/30 15:33:56;;;;;;;5.93;2.73;;;;;;;10.25;66.69;99992.47;5113095;28;20221;-60
2022/12/30 15:36:25;;;;;;;6.87;3.07;;;;;;;10.12;67.21;99988.06;5113144;28;20225;-60
2022/12/30 15:38:53;;;;;;;5.10;2.73;;;;;;;9.94;68.05;99989.88;5113349;28;20278;-60
2022/12/30 15:41:27;;;;;;;5.50;3.23;;;;;;;9.97;68.02;99994.00;5112770;28;20193;-60
2022/12/30 15:43:56;;;;;;;3.63;2.87;;;;;;;9.94;68.49;100004.41;5113092;28;20229;-60
2022/12/30 15:46:27;;;;;;;4.57;2.47;;;;;;;9.88;68.90;100000.44;5112749;28;20193;-60
2022/12/30 15:49:12;;;;;;;7.37;2.90;;;;;;;9.73;69.53;100002.09;5112746;28;20217;-63
2022/12/30 15:51:43;;;;;;;3.53;2.53;;;;;;;9.56;70.31;100002.19;5112786;28;20205;-63
2022/12/30 15:54:22;;;;;;;7.57;2.83;;;;;;;9.22;71.55;99996.31;5113230;28;20240;-63
2022/12/30 15:56:50;;;;;;;4.30;2.77;;;;;;;9.03;72.70;100005.81;5112878;28;20264;-62
2022/12/30 15:59:23;;;;;;;6.47;4.27;;;;;;;8.88;73.72;99998.97;5113120;28;20248;-63
2022/12/30 16:01:51;;;;;;;6.43;3.87;;;;;;;8.89;73.62;100003.13;5113173;28;20197;-62
2022/12/30 16:04:20;;;;;;;8.50;4.00;;;;;;;8.90;73.78;99999.69;5112601;28;20225;-62
2022/12/30 16:06:51;;;;;;;6.07;3.67;;;;;;;8.99;73.36;100001.78;5112175;28;20254;-60
2022/12/30 16:09:37;;;;;;;6.40;4.10;;;;;;;8.99;73.18;99999.25;5112526;28;20217;-60
2022/12/30 16:12:20;;;;;;;7.03;3.57;;;;;;;8.93;73.22;99989.31;5112351;28;20213;-60
2022/12/30 16:14:55;;;;;;;6.00;2.77;;;;;;;8.93;73.12;99994.41;5112363;28;20213;-60
2022/12/30 16:17:24;;;;;;;6.53;2.83;;;;;;;9.01;72.34;99997.41;5112133;28;20225;-60
2022/12/30 16:19:52;;;;;;;2.63;1.77;;;;;;;9.00;71.84;99985.56;5112151;28;20307;-59
2022/12/30 16:22:23;;;;;;;6.60;3.13;;;;;;;8.91;71.28;99988.59;5112164;28;20193;-60
2022/12/30 16:24:56;;;;;;;15.97;6.43;;;;;;;8.88;71.57;99993.84;5112362;28;20228;-60
2022/12/30 16:27:24;;;;;;;9.67;4.60;;;;;;;8.96;71.15;99995.13;5112008;28;20200;-60
2022/12/30 16:29:51;;;;;;;7.80;4.50;;;;;;;8.92;70.92;99998.69;5111896;28;20221;-62
2022/12/30 16:32:22;;;;;;;7.23;3.63;;;;;;;8.94;70.54;100003.75;5112117;28;20200;-62
2022/12/30 16:34:50;;;;;;;5.80;2.07;;;;;;;8.95;70.77;100006.19;5111958;28;20315;-62
2022/12/30 16:37:26;;;;;;;4.57;2.63;;;;;;;8.97;70.69;100003.59;5112244;28;20228;-62
2022/12/30 16:39:56;;;;;;;5.73;2.00;;;;;;;8.96;70.62;100004.47;5112160;28;20688;-62
2022/12/30 16:42:23;;;;;;;2.70;2.17;;;;;;;8.93;70.70;100005.47;5112099;28;20189;-63
2022/12/30 16:44:50;;;;;;;3.70;1.63;;;;;;;8.97;70.68;100014.59;5111931;28;20224;-62
2022/12/30 16:47:17;;;;;;;1.50;1.40;;;;;;;8.88;71.56;100014.25;5112150;28;20204;-62
2022/12/30 16:49:44;;;;;;;2.80;2.23;;;;;;;8.83;71.74;100020.38;5111906;28;20239;-62
2022/12/30 16:52:20;;;;;;;10.77;4.00;;;;;;;8.83;72.25;100014.47;5111498;28;20193;-62
2022/12/30 16:54:49;;;;;;;4.70;3.23;;;;;;;8.82;72.12;100018.75;5111453;28;20232;-62
2022/12/30 16:57:18;;;;;;;6.60;2.70;;;;;;;8.77;72.61;100030.91;5109583;28;20876;-62
2022/12/30 16:59:46;;;;;;;3.40;2.33;;;;;;;8.76;72.04;100025.91;5091141;28;20723;-62
2022/12/30 17:02:17;;;;;;;2.70;1.80;;;;;;;8.67;72.50;100033.97;5090078;28;20206;-62
2022/12/30 17:04:44;;;;;;;1.63;1.23;;;;;;;8.67;72.91;100034.81;5090323;28;20218;-62
2022/12/30 17:07:12;;;;;;;2.77;1.57;;;;;;;8.78;72.60;100035.09;5093863;28;20205;-62
2022/12/30 17:12:28;;;;;;;2.13;1.63;;;;;;;8.82;72.45;100041.69;5091615;28;20193;-62
2022/12/30 17:14:55;;;;;;;1.50;1.40;;;;;;;8.96;72.17;100045.28;5098569;27;20214;-60
2022/12/30 17:17:21;;;;;;;1.83;1.23;;;;;;;9.14;71.91;100044.38;5087989;28;20541;-59
2022/12/30 17:19:48;;;;;;;3.73;1.60;;;;;;;9.22;72.34;100046.50;5089336;28;20229;-62
2022/12/30 17:22:17;;;;;;;3.77;1.73;;;;;;;9.06;73.06;100042.19;5089713;28;20201;-59
2022/12/30 17:24:44;;;;;;;1.73;1.47;;;;;;;9.00;73.44;100044.25;5090729;28;20221;-60
2022/12/30 17:27:20;;;;;;;1.57;1.30;;;;;;;8.84;74.17;100051.81;5090726;28;20198;-59
2022/12/30 17:29:48;;;;;;;4.83;2.03;;;;;;;8.74;75.25;100046.34;5090471;28;20209;-60
2022/12/30 17:32:23;;;;;;;5.37;3.30;;;;;;;8.62;78.18;100054.59;5090793;28;20202;-62
2022/12/30 17:34:50;;;;;;;4.87;3.17;;;;;;;8.53;80.20;100055.06;5090727;28;20243;-62
2022/12/30 17:37:17;;;;;;;6.63;3.17;;;;;;;8.44;81.28;100048.69;5090716;28;20222;-62
2022/12/30 17:39:44;;;;;;;3.93;2.83;;;;;;;8.35;82.60;100055.00;5090324;28;20221;-62
2022/12/30 17:42:11;;;;;;;7.17;3.43;;;;;;;8.35;83.04;100049.09;5090371;28;20201;-60
2022/12/30 17:44:38;;;;;;;5.23;3.37;;;;;;;8.41;84.12;100045.44;5090580;28;20241;-62
2022/12/30 17:47:06;;;;;;;8.53;3.73;;;;;;;8.44;85.03;100048.69;5090354;28;20202;-62
2022/12/30 17:49:33;;;;;;;7.67;4.50;;;;;;;8.44;85.04;100043.59;5089934;28;20731;-62
2022/12/30 17:52:00;;;;;;;6.43;3.30;;;;;;;8.40;85.37;100049.69;5090174;28;20206;-62
2022/12/30 17:54:27;;;;;;;4.13;2.93;;;;;;;8.39;85.52;100046.34;5090062;28;20213;-62
2022/12/30 17:56:54;;;;;;;6.10;3.00;;;;;;;8.35;86.26;100052.47;5090046;28;20234;-62
2022/12/30 17:59:21;;;;;;;2.87;1.93;;;;;;;8.31;86.90;100050.94;5090477;28;20226;-62
2022/12/30 18:01:48;;;;;;;6.17;2.70;;;;;;;8.29;87.03;100055.31;5090257;28;20280;-62
2022/12/30 18:04:16;;;;;;;3.03;2.33;;;;;;;8.34;87.58;100058.44;5090360;28;20217;-62
2022/12/30 18:06:43;;;;;;;5.57;2.13;;;;;;;8.35;87.72;100065.19;5090311;28;20208;-61
2022/12/30 18:09:11;;;;;;;6.23;2.97;;;;;;;8.35;88.36;100062.66;5090205;28;20225;-62
2022/12/30 18:11:38;;;;;;;3.93;2.70;;;;;;;8.38;88.29;100059.13;5089966;28;20204;-62
2022/12/30 18:14:05;;;;;;;4.10;2.60;;;;;;;8.35;88.86;100059.28;5089545;28;20214;-62
2022/12/30 18:16:33;;;;;;;5.40;3.17;;;;;;;8.36;88.75;100060.91;5089779;28;20727;-62
2022/12/30 18:19:02;;;;;;;3.03;2.40;;;;;;;8.41;88.79;100063.25;5089500;28;20228;-60
2022/12/30 18:21:31;;;;;;;4.90;3.37;;;;;;;8.44;88.82;100068.25;5089812;28;20208;-60
2022/12/30 18:23:58;;;;;;;3.53;2.90;;;;;;;8.35;88.64;100065.19;5089788;28;20590;-59
2022/12/30 18:26:27;;;;;;;6.60;2.53;;;;;;;8.33;89.01;100069.53;5089977;28;20208;-60
2022/12/30 18:28:54;;;;;;;5.30;2.57;;;;;;;8.51;88.51;100065.31;5089456;28;20220;-60
2022/12/30 18:31:23;;;;;;;5.33;3.30;;;;;;;8.49;88.76;100061.19;5089785;28;20318;-62
2022/12/30 18:33:51;;;;;;;6.63;3.50;;;;;;;8.41;89.36;100063.25;5089517;28;20224;-62
2022/12/30 18:36:20;;;;;;;4.33;3.00;;;;;;;8.44;89.23;100063.97;5089592;28;20197;-60
2022/12/30 18:38:49;;;;;;;4.67;2.90;;;;;;;8.59;89.27;100068.31;5089467;28;20214;-60
2022/12/30 18:41:18;;;;;;;3.87;2.47;;;;;;;8.78;88.23;100070.78;5089701;28;20197;-62
2022/12/30 18:43:45;;;;;;;9.63;4.43;;;;;;;9.12;86.39;100065.75;5089482;28;20225;-62
2022/12/30 18:46:16;;;;;;;4.90;2.50;;;;;;;9.31;85.16;100076.69;5089616;28;20204;-62